Airfield :
LOGIN :

Register | Disclaimer

   EN    FR    IT 

 










Legend :    VFR   Marginal VFR   IFR   Intensive IFR   Very Intensive IFR
Visi :
Ceiling :
>= 8 km
>= 3000ft
5 to 8 km
1000 to 3000 ft
1500m to 5 km
500 to 1000 ft
800 to 1500m
200 to 500 ft
< 800m
< 200 ft
Symbols :   Thunderstorms  Fog  Heavy snow  Heavy precipitations  Wind > 20 kt
SIGMETs :     Misc.  Thunderstorms  Icing  Turbulence  Mountain Waves  Volcanic Ashes






- Airport Elevation : 297 ft


EGVP - Middle Wallop

CURRENT METAR :
  • 280750Z 17013KT 9999 RA BKN012 BKN027 OVC060 05/04 Q1009 TEMPO 5000 RMK GRN TEMPO GRN

EXPIRED METARs :
  • 280650Z 16008KT 7000 RA FEW020 BKN045 OVC070 04/03 Q1010 RMK WHT
  • 280550Z 16004KT 9999 SCT030 BKN060 OVC110 02/01 Q1011 RMK BLU
  • 280450Z AUTO 18002KT 9999 BKN100/// 01/M01 Q1012

TAF TAF EGVP
Valid from the 28 at 07:00 until the 28 at 15:00 UTC


280644Z 2807/2815 17012KT 7000 -RA FEW020 BKN030
BECMG 2807/2809 17015G25KT BKN008
TEMPO 2808/2811 4000 RA SCT006
TEMPO 2811/2815 2500 RADZ BKN004
BECMG 2812/2814 22018G28KT
ATIS : +44 1980 674 142



MET'MAP, your aeronautical weather chart ! - Copyright ORBIFLY December 2007 - Disclaimer

ORBIFLY MET'MAP TEAM :

Programming & Development : Alexandra Zaïnal
Concept & original design : Baudouin d'Aumeries
Assistance for programming : Marc-Olivier Méhu
Technical & hardware support : Manuel Goepfert

Contact : metmap@orbifly.com




SOURCES & CREDITS :

   NOAA